Time;durP1;ratioP1;P1;durP2;ratioP2;P2;SDS_P1;SDS_P2;PMS_P1;PMS_P2;Temp;Humidity;BMP_temperature;BMP_pressure;BME280_temperature;BME280_humidity;BME280_pressure;Samples;Min_cycle;Max_cycle;Signal;HPM_P1;HPM_P2
2021/10/09 00:02:25;;;;;;;8.23;7.37;;;;;;;;;;5121392;28;20211;-63
2021/10/09 00:04:53;;;;;;;8.30;7.33;;;;;;;;;;5120931;27;20231;-63
2021/10/09 00:07:22;;;;;;;8.93;7.60;;;;;;;;;;5120779;27;20205;-64
2021/10/09 00:09:54;;;;;;;10.07;7.30;;;;;;;;;;5121097;28;20209;-63
2021/10/09 00:12:22;;;;;;;9.40;7.23;;;;;;;;;;5120931;28;20288;-63
2021/10/09 00:14:50;;;;;;;11.17;7.97;;;;;;;;;;5120701;28;20235;-63
2021/10/09 00:17:19;;;;;;;8.27;7.37;;;;;;;;;;5120759;27;20278;-63
2021/10/09 00:19:47;;;;;;;11.13;8.10;;;;;;;;;;5117674;28;20197;-63
2021/10/09 00:22:15;;;;;;;10.57;8.17;;;;;;;;;;5120041;28;20201;-63
2021/10/09 00:24:44;;;;;;;9.43;8.40;;;;;;;;;;5120520;28;20227;-64
2021/10/09 00:27:13;;;;;;;10.67;8.50;;;;;;;;;;5119770;28;20247;-63
2021/10/09 00:29:41;;;;;;;10.33;8.13;;;;;;;;;;5120402;28;20232;-63
2021/10/09 00:32:09;;;;;;;15.47;9.23;;;;;;;;;;5118193;28;20204;-63
2021/10/09 00:34:37;;;;;;;10.40;8.27;;;;;;;;;;5121013;28;20228;-64
2021/10/09 00:37:05;;;;;;;10.40;8.37;;;;;;;;;;5121017;28;20275;-63
2021/10/09 00:39:33;;;;;;;10.20;7.80;;;;;;;;;;5120459;28;20312;-64
2021/10/09 00:42:04;;;;;;;12.43;8.87;;;;;;;;;;5120201;28;20691;-64
2021/10/09 00:44:32;;;;;;;10.57;8.17;;;;;;;;;;5120167;28;20699;-64
2021/10/09 00:47:03;;;;;;;9.73;7.77;;;;;;;;;;5119783;28;20225;-63
2021/10/09 00:49:31;;;;;;;10.67;8.10;;;;;;;;;;5119978;28;20204;-63
2021/10/09 00:52:00;;;;;;;12.40;8.77;;;;;;;;;;5120076;28;20205;-63
2021/10/09 00:54:28;;;;;;;11.53;8.23;;;;;;;;;;5119496;28;20224;-63
2021/10/09 00:56:57;;;;;;;8.57;7.37;;;;;;;;;;5120014;28;20212;-64
2021/10/09 00:59:27;;;;;;;9.90;8.00;;;;;;;;;;5119664;28;20209;-63
2021/10/09 01:01:57;;;;;;;10.27;8.60;;;;;;;;;;5119987;27;20292;-64
2021/10/09 01:04:26;;;;;;;9.53;8.47;;;;;;;;;;5119691;28;20220;-64
2021/10/09 01:06:54;;;;;;;9.07;7.77;;;;;;;;;;5119490;28;20235;-64
2021/10/09 01:09:21;;;;;;;10.57;7.77;;;;;;;;;;5119640;27;20201;-64
2021/10/09 01:11:50;;;;;;;11.63;8.83;;;;;;;;;;5119699;28;20208;-64
2021/10/09 01:14:18;;;;;;;12.20;8.40;;;;;;;;;;5119667;28;20231;-63
2021/10/09 01:16:47;;;;;;;10.00;8.23;;;;;;;;;;5119728;27;20200;-63
2021/10/09 01:19:15;;;;;;;10.73;8.23;;;;;;;;;;5119530;28;20205;-64
2021/10/09 01:21:45;;;;;;;10.97;7.97;;;;;;;;;;5119620;28;20211;-64
2021/10/09 01:24:14;;;;;;;12.33;9.07;;;;;;;;;;5118704;28;20796;-64
2021/10/09 01:26:42;;;;;;;12.27;9.07;;;;;;;;;;5118982;28;20596;-63
2021/10/09 01:29:12;;;;;;;13.17;8.37;;;;;;;;;;5119151;28;20212;-64
2021/10/09 01:31:40;;;;;;;11.83;9.10;;;;;;;;;;5119271;28;20386;-63
2021/10/09 01:34:08;;;;;;;12.00;8.33;;;;;;;;;;5118898;28;20225;-63
2021/10/09 01:36:37;;;;;;;11.63;8.33;;;;;;;;;;5119383;28;20201;-63
2021/10/09 01:39:07;;;;;;;11.23;8.60;;;;;;;;;;5118537;28;20695;-63
2021/10/09 01:41:37;;;;;;;10.63;8.20;;;;;;;;;;5119385;28;20208;-64
2021/10/09 01:44:05;;;;;;;10.30;8.00;;;;;;;;;;5119200;28;20225;-64
2021/10/09 01:46:33;;;;;;;11.57;8.50;;;;;;;;;;5118656;28;20586;-63
2021/10/09 01:49:01;;;;;;;10.83;8.47;;;;;;;;;;5119038;28;20211;-63
2021/10/09 01:51:30;;;;;;;10.87;8.17;;;;;;;;;;5118727;28;20223;-64
2021/10/09 01:53:58;;;;;;;9.63;7.63;;;;;;;;;;5118408;27;20231;-63
2021/10/09 01:56:28;;;;;;;10.60;8.20;;;;;;;;;;5118789;28;20205;-63
2021/10/09 01:58:56;;;;;;;12.00;7.83;;;;;;;;;;5118587;28;20200;-64
2021/10/09 02:01:24;;;;;;;12.37;8.53;;;;;;;;;;5118669;28;20207;-64
2021/10/09 02:03:52;;;;;;;10.07;7.13;;;;;;;;;;5118508;28;20329;-64
2021/10/09 02:06:20;;;;;;;10.03;8.17;;;;;;;;;;5118716;28;20220;-64
2021/10/09 02:08:48;;;;;;;9.93;7.57;;;;;;;;;;5117869;28;20213;-63
2021/10/09 02:11:16;;;;;;;8.60;7.10;;;;;;;;;;5118614;28;20243;-64
2021/10/09 02:13:51;;;;;;;10.10;6.73;;;;;;;;;;5118367;28;20204;-64
2021/10/09 02:24:45;;;;;;;8.27;6.90;;;;;;;;;;5118120;28;20223;-64
2021/10/09 02:27:13;;;;;;;10.53;7.57;;;;;;;;;;5117836;28;20718;-63
2021/10/09 02:29:42;;;;;;;8.83;6.77;;;;;;;;;;5118124;28;20209;-64
2021/10/09 02:32:10;;;;;;;8.73;7.23;;;;;;;;;;5117908;28;20663;-64
2021/10/09 02:34:38;;;;;;;8.90;6.77;;;;;;;;;;5118323;28;20227;-64
2021/10/09 02:37:06;;;;;;;10.13;7.50;;;;;;;;;;5118355;28;20209;-64
2021/10/09 02:39:34;;;;;;;8.80;6.87;;;;;;;;;;5117673;28;20243;-64
2021/10/09 02:42:02;;;;;;;10.53;6.63;;;;;;;;;;5118100;28;20211;-64
2021/10/09 02:44:30;;;;;;;9.70;6.90;;;;;;;;;;5117942;28;20224;-64
2021/10/09 02:47:00;;;;;;;9.07;6.93;;;;;;;;;;5117993;28;20231;-64
2021/10/09 02:49:28;;;;;;;11.40;6.77;;;;;;;;;;5118027;28;20212;-64
2021/10/09 02:51:56;;;;;;;8.73;7.13;;;;;;;;;;5104809;28;20204;-64
2021/10/09 02:54:24;;;;;;;10.37;7.43;;;;;;;;;;5118127;28;20220;-63
2021/10/09 02:56:52;;;;;;;11.97;8.00;;;;;;;;;;5118086;28;20739;-64
2021/10/09 02:59:20;;;;;;;12.03;8.87;;;;;;;;;;5118051;28;20212;-64
2021/10/09 03:01:47;;;;;;;10.67;8.57;;;;;;;;;;5117851;28;20201;-63
2021/10/09 03:04:17;;;;;;;13.50;7.87;;;;;;;;;;5117622;28;20227;-64
2021/10/09 03:06:45;;;;;;;12.57;8.87;;;;;;;;;;5117995;28;20659;-64
2021/10/09 03:09:13;;;;;;;10.93;8.40;;;;;;;;;;5117646;28;20215;-64
2021/10/09 03:11:41;;;;;;;13.33;10.10;;;;;;;;;;5118765;28;20230;-64
2021/10/09 03:14:09;;;;;;;13.20;8.93;;;;;;;;;;5118494;28;20692;-64
2021/10/09 03:16:37;;;;;;;11.67;8.10;;;;;;;;;;5117865;28;20205;-64
2021/10/09 03:19:05;;;;;;;10.27;8.47;;;;;;;;;;5117962;28;20209;-63
2021/10/09 03:21:34;;;;;;;11.60;8.73;;;;;;;;;;5119654;28;20204;-64
2021/10/09 03:24:02;;;;;;;13.30;9.27;;;;;;;;;;5121467;28;20228;-63
2021/10/09 03:26:30;;;;;;;12.90;9.30;;;;;;;;;;5121484;28;20204;-64
2021/10/09 03:28:58;;;;;;;12.23;9.53;;;;;;;;;;5121644;28;20224;-64
2021/10/09 03:31:26;;;;;;;14.30;8.40;;;;;;;;;;5121297;28;20668;-64
2021/10/09 03:33:54;;;;;;;13.60;8.90;;;;;;;;;;5121673;28;20256;-63
2021/10/09 03:36:22;;;;;;;13.03;8.57;;;;;;;;;;5121512;28;20209;-63
2021/10/09 03:38:51;;;;;;;14.00;9.50;;;;;;;;;;5120878;28;20228;-64
2021/10/09 03:41:19;;;;;;;12.43;9.50;;;;;;;;;;5121383;28;20243;-63
2021/10/09 03:43:47;;;;;;;14.77;9.47;;;;;;;;;;5121231;28;20235;-64
2021/10/09 03:46:19;;;;;;;14.20;9.23;;;;;;;;;;5121083;28;20577;-64
2021/10/09 03:48:55;;;;;;;14.23;9.47;;;;;;;;;;5121626;28;20225;-64
2021/10/09 03:54:10;;;;;;;15.77;9.27;;;;;;;;;;5119441;28;20224;-64
2021/10/09 03:56:38;;;;;;;12.37;9.43;;;;;;;;;;5117011;28;20552;-64
2021/10/09 03:59:06;;;;;;;12.87;8.23;;;;;;;;;;5113650;28;20541;-63
2021/10/09 04:01:34;;;;;;;11.73;9.30;;;;;;;;;;5116350;28;20201;-64
2021/10/09 04:04:02;;;;;;;14.90;9.30;;;;;;;;;;5117706;27;20233;-63
2021/10/09 04:06:30;;;;;;;15.10;10.00;;;;;;;;;;5115669;28;20296;-63
2021/10/09 04:08:58;;;;;;;14.77;10.57;;;;;;;;;;5113415;28;20307;-64
2021/10/09 04:11:28;;;;;;;15.40;9.63;;;;;;;;;;5115595;28;20207;-63
2021/10/09 04:13:56;;;;;;;13.83;10.70;;;;;;;;;;5118978;28;20225;-64
2021/10/09 04:16:24;;;;;;;14.20;9.53;;;;;;;;;;5119222;28;20207;-63
2021/10/09 04:18:52;;;;;;;13.37;9.30;;;;;;;;;;5119477;28;20200;-63
2021/10/09 04:21:20;;;;;;;13.30;9.47;;;;;;;;;;5119428;28;20213;-63
2021/10/09 04:23:48;;;;;;;16.07;10.70;;;;;;;;;;5118830;28;20742;-64
2021/10/09 04:26:16;;;;;;;13.87;10.03;;;;;;;;;;5119190;27;20204;-64
2021/10/09 04:28:45;;;;;;;14.43;9.40;;;;;;;;;;5119320;27;20224;-64
2021/10/09 04:31:13;;;;;;;17.53;10.27;;;;;;;;;;5119442;28;20205;-64
2021/10/09 04:33:41;;;;;;;16.07;10.50;;;;;;;;;;5118592;28;20201;-64
2021/10/09 04:36:09;;;;;;;15.83;10.40;;;;;;;;;;5119007;28;20211;-64
2021/10/09 04:38:37;;;;;;;14.37;10.03;;;;;;;;;;5118123;28;20225;-63
2021/10/09 04:41:05;;;;;;;20.00;11.10;;;;;;;;;;5119084;28;20201;-64
2021/10/09 04:43:33;;;;;;;16.57;10.37;;;;;;;;;;5118793;28;20193;-64
2021/10/09 04:46:02;;;;;;;15.27;9.63;;;;;;;;;;5118565;28;20678;-64
2021/10/09 04:48:30;;;;;;;15.37;10.10;;;;;;;;;;5118743;28;20304;-64
2021/10/09 04:50:58;;;;;;;12.43;8.43;;;;;;;;;;5118469;28;20624;-64
2021/10/09 04:53:26;;;;;;;17.37;10.33;;;;;;;;;;5118739;28;20197;-64
2021/10/09 04:55:54;;;;;;;16.87;10.13;;;;;;;;;;5119434;28;20205;-63
2021/10/09 04:58:22;;;;;;;15.50;10.43;;;;;;;;;;5105949;28;20205;-63
2021/10/09 05:00:51;;;;;;;16.47;9.90;;;;;;;;;;5119493;28;20204;-63
2021/10/09 05:03:21;;;;;;;15.67;10.50;;;;;;;;;;5119482;27;20205;-65
2021/10/09 05:05:48;;;;;;;14.57;9.20;;;;;;;;;;5119861;28;20223;-64
2021/10/09 05:08:16;;;;;;;14.73;10.90;;;;;;;;;;5119545;28;20232;-63
2021/10/09 05:10:44;;;;;;;15.13;9.70;;;;;;;;;;5119755;28;20215;-62
2021/10/09 05:13:12;;;;;;;13.63;9.40;;;;;;;;;;5119772;27;20215;-63
2021/10/09 05:15:41;;;;;;;14.87;9.50;;;;;;;;;;5119450;28;20225;-63
2021/10/09 05:18:09;;;;;;;15.67;9.93;;;;;;;;;;5119598;28;20264;-63
2021/10/09 05:20:39;;;;;;;15.03;10.17;;;;;;;;;;5119689;28;20227;-63
2021/10/09 05:23:07;;;;;;;15.33;10.50;;;;;;;;;;5119462;28;20215;-63
2021/10/09 05:25:37;;;;;;;14.77;9.73;;;;;;;;;;5114888;28;20213;-63
2021/10/09 05:28:06;;;;;;;16.33;10.23;;;;;;;;;;5109937;28;20260;-63
2021/10/09 05:30:35;;;;;;;17.27;10.70;;;;;;;;;;5113204;28;20203;-63
2021/10/09 05:33:15;;;;;;;17.13;10.17;;;;;;;;;;5112351;28;20201;-62
2021/10/09 05:35:45;;;;;;;13.97;10.03;;;;;;;;;;5114524;28;20295;-62
2021/10/09 05:38:13;;;;;;;14.43;9.83;;;;;;;;;;5118720;28;20613;-62
2021/10/09 05:40:41;;;;;;;14.33;9.63;;;;;;;;;;5119259;28;20213;-61
2021/10/09 05:43:09;;;;;;;18.13;9.87;;;;;;;;;;5118996;28;20201;-62
2021/10/09 05:45:37;;;;;;;16.90;9.93;;;;;;;;;;5118896;28;20311;-62
2021/10/09 05:48:06;;;;;;;11.20;8.60;;;;;;;;;;5118859;28;20269;-62
2021/10/09 05:50:41;;;;;;;14.30;10.07;;;;;;;;;;5119061;28;20283;-62
2021/10/09 05:53:16;;;;;;;12.40;8.97;;;;;;;;;;5118849;28;20212;-62
2021/10/09 05:55:52;;;;;;;17.73;8.80;;;;;;;;;;5118999;28;20224;-62
2021/10/09 05:58:24;;;;;;;12.63;8.57;;;;;;;;;;5118762;28;20211;-62
2021/10/09 06:43:03;;;;;;;16.40;10.03;;;;;;;;;;5041824;28;20691;-62
2021/10/09 06:48:39;;;;;;;16.43;10.97;;;;;;;;;;5095965;28;20208;-62
2021/10/09 06:59:30;;;;;;;13.33;9.30;;;;;;;;;;5129938;27;20207;-62
2021/10/09 07:01:59;;;;;;;16.23;10.27;;;;;;;;;;5128532;27;20547;-62
2021/10/09 07:04:28;;;;;;;13.73;9.70;;;;;;;;;;5131592;27;20224;-62
2021/10/09 07:06:58;;;;;;;17.07;10.20;;;;;;;;;;5129413;27;20611;-62
2021/10/09 07:09:26;;;;;;;17.40;10.77;;;;;;;;;;5131746;27;20302;-62
2021/10/09 07:11:54;;;;;;;16.53;10.40;;;;;;;;;;5130371;27;20655;-62
2021/10/09 07:14:24;;;;;;;14.83;9.73;;;;;;;;;;5131481;27;20217;-62
2021/10/09 07:16:52;;;;;;;15.23;10.10;;;;;;;;;;5130645;27;20196;-62
2021/10/09 07:19:20;;;;;;;13.53;9.27;;;;;;;;;;5121574;28;20200;-62
2021/10/09 07:21:48;;;;;;;14.80;10.27;;;;;;;;;;5122140;28;20207;-63
2021/10/09 07:24:36;;;;;;;14.50;9.70;;;;;;;;;;5121304;28;20287;-62
2021/10/09 07:27:04;;;;;;;16.53;10.27;;;;;;;;;;5121310;28;20211;-62
2021/10/09 07:29:34;;;;;;;16.27;10.27;;;;;;;;;;5129081;27;20212;-62
2021/10/09 07:32:02;;;;;;;15.80;10.33;;;;;;;;;;5131302;27;20196;-62
2021/10/09 07:34:30;;;;;;;16.20;10.77;;;;;;;;;;5129089;27;20269;-62
2021/10/09 07:36:58;;;;;;;15.47;9.97;;;;;;;;;;5133607;27;20258;-62
2021/10/09 07:39:26;;;;;;;15.63;10.53;;;;;;;;;;5120863;28;20810;-62
2021/10/09 07:41:54;;;;;;;17.27;11.57;;;;;;;;;;5121917;28;20215;-63
2021/10/09 07:44:23;;;;;;;15.67;10.87;;;;;;;;;;5126944;27;20279;-63
2021/10/09 07:46:53;;;;;;;15.57;10.80;;;;;;;;;;5131981;27;20621;-62
2021/10/09 07:49:21;;;;;;;17.20;10.70;;;;;;;;;;5125276;27;20221;-62
2021/10/09 07:51:49;;;;;;;17.77;10.97;;;;;;;;;;5121495;28;20232;-63
2021/10/09 07:54:17;;;;;;;12.97;9.87;;;;;;;;;;5120643;28;20224;-63
2021/10/09 07:56:45;;;;;;;16.17;10.87;;;;;;;;;;5121222;27;20209;-63
2021/10/09 07:59:13;;;;;;;22.10;11.70;;;;;;;;;;5120947;28;20280;-63
2021/10/09 08:01:41;;;;;;;18.50;11.40;;;;;;;;;;5121192;27;20208;-62
2021/10/09 08:04:14;;;;;;;16.50;11.20;;;;;;;;;;5120595;28;20590;-63
2021/10/09 08:06:42;;;;;;;21.60;11.90;;;;;;;;;;5120300;28;20215;-63
2021/10/09 08:09:10;;;;;;;20.57;12.03;;;;;;;;;;5120495;28;20205;-63
2021/10/09 08:11:39;;;;;;;18.67;11.83;;;;;;;;;;5120744;27;20678;-62
2021/10/09 08:14:07;;;;;;;20.73;11.77;;;;;;;;;;5120923;28;20293;-63
2021/10/09 08:16:42;;;;;;;25.33;12.53;;;;;;;;;;5120881;28;20277;-63
2021/10/09 08:19:12;;;;;;;17.47;11.73;;;;;;;;;;5120978;28;20272;-63
2021/10/09 08:21:41;;;;;;;18.30;11.17;;;;;;;;;;5121181;28;20212;-63
2021/10/09 08:24:15;;;;;;;19.60;11.60;;;;;;;;;;5128021;27;20305;-62
2021/10/09 08:26:59;;;;;;;17.90;11.27;;;;;;;;;;5129180;27;20275;-63
2021/10/09 08:40:30;;;;;;;15.70;10.00;;;;;;;;;;5088817;28;20250;-62
2021/10/09 08:42:58;;;;;;;18.40;10.97;;;;;;;;;;5088045;28;20203;-62
2021/10/09 08:45:26;;;;;;;17.77;11.30;;;;;;;;;;5087074;28;20221;-62
2021/10/09 08:47:54;;;;;;;17.97;10.73;;;;;;;;;;5081614;28;20213;-63
2021/10/09 08:50:23;;;;;;;15.87;10.23;;;;;;;;;;5088021;28;20221;-62
2021/10/09 08:52:59;;;;;;;15.07;9.93;;;;;;;;;;5086902;28;20212;-62
2021/10/09 08:55:28;;;;;;;17.77;11.03;;;;;;;;;;5083523;28;20240;-62
2021/10/09 08:58:00;;;;;;;16.93;10.27;;;;;;;;;;5086933;28;20198;-62
2021/10/09 09:00:49;;;;;;;17.97;10.47;;;;;;;;;;5088224;28;20627;-63
2021/10/09 09:03:23;;;;;;;17.37;10.47;;;;;;;;;;5087416;28;20834;-62
2021/10/09 09:06:05;;;;;;;17.43;10.53;;;;;;;;;;5083620;28;20591;-62
2021/10/09 09:25:58;;;;;;;15.90;10.40;;;;;;;;;;5072802;28;20222;-63
2021/10/09 09:31:32;;;;;;;14.77;10.17;;;;;;;;;;5086141;28;20228;-62
2021/10/09 09:34:17;;;;;;;17.93;11.43;;;;;;;;;;5078283;28;20583;-62
2021/10/09 09:37:03;;;;;;;16.87;10.23;;;;;;;;;;5078681;28;20210;-64
2021/10/09 09:39:39;;;;;;;16.17;11.00;;;;;;;;;;5106555;28;20639;-64
2021/10/09 09:42:08;;;;;;;16.27;11.07;;;;;;;;;;5118818;28;20215;-63
2021/10/09 09:44:36;;;;;;;14.77;11.67;;;;;;;;;;5123036;27;20220;-63
2021/10/09 09:47:05;;;;;;;15.27;10.67;;;;;;;;;;5127770;27;20316;-63
2021/10/09 09:49:53;;;;;;;16.23;10.73;;;;;;;;;;5124133;27;20205;-63
2021/10/09 09:52:22;;;;;;;14.80;10.63;;;;;;;;;;5125992;27;20201;-63
2021/10/09 09:54:52;;;;;;;18.60;11.07;;;;;;;;;;5127019;27;20255;-63
2021/10/09 09:57:21;;;;;;;17.93;10.47;;;;;;;;;;5126720;27;20279;-63
2021/10/09 09:59:52;;;;;;;18.57;11.23;;;;;;;;;;5126539;27;20196;-64
2021/10/09 10:02:21;;;;;;;14.17;9.53;;;;;;;;;;5118165;28;20209;-64
2021/10/09 10:04:49;;;;;;;17.57;10.90;;;;;;;;;;5124161;27;20319;-64
2021/10/09 10:07:17;;;;;;;16.23;11.00;;;;;;;;;;5126266;27;20196;-64
2021/10/09 10:09:45;;;;;;;15.33;10.67;;;;;;;;;;5126849;27;20564;-65
2021/10/09 10:12:15;;;;;;;14.80;10.80;;;;;;;;;;5128082;27;20589;-65
2021/10/09 10:14:43;;;;;;;18.63;11.40;;;;;;;;;;5121860;27;20225;-64
2021/10/09 10:17:11;;;;;;;15.10;10.97;;;;;;;;;;5118346;28;20214;-65
2021/10/09 10:20:01;;;;;;;14.10;10.63;;;;;;;;;;5118081;28;20201;-65
2021/10/09 10:22:49;;;;;;;17.40;10.73;;;;;;;;;;5111751;28;20232;-65
2021/10/09 10:25:27;;;;;;;17.57;10.43;;;;;;;;;;5117735;28;20587;-66
2021/10/09 10:27:59;;;;;;;22.20;11.83;;;;;;;;;;5118423;28;20264;-65
2021/10/09 10:30:29;;;;;;;16.87;10.80;;;;;;;;;;5117942;28;20227;-64
2021/10/09 10:33:19;;;;;;;16.23;10.70;;;;;;;;;;5118088;28;20201;-64
2021/10/09 10:35:47;;;;;;;15.00;10.77;;;;;;;;;;5117090;28;20217;-65
2021/10/09 10:38:35;;;;;;;16.53;10.30;;;;;;;;;;5125865;27;20311;-65
2021/10/09 10:41:05;;;;;;;16.73;11.40;;;;;;;;;;5124668;27;20244;-65
2021/10/09 10:43:44;;;;;;;16.33;10.60;;;;;;;;;;5128741;27;20192;-64
2021/10/09 10:46:34;;;;;;;16.23;10.07;;;;;;;;;;5126793;28;20560;-65
2021/10/09 10:49:05;;;;;;;16.17;10.07;;;;;;;;;;5127329;28;20204;-64
2021/10/09 10:51:42;;;;;;;17.50;11.30;;;;;;;;;;5126333;28;20213;-65
2021/10/09 10:54:35;;;;;;;18.97;11.60;;;;;;;;;;5124650;28;20230;-65
2021/10/09 10:57:19;;;;;;;20.27;11.43;;;;;;;;;;5124512;28;20640;-65
2021/10/09 10:59:59;;;;;;;16.00;10.80;;;;;;;;;;5124126;28;20201;-65
2021/10/09 11:02:28;;;;;;;16.10;10.97;;;;;;;;;;5117616;28;20209;-65
2021/10/09 11:04:57;;;;;;;16.30;10.33;;;;;;;;;;5116808;28;20228;-65
2021/10/09 11:07:26;;;;;;;14.70;9.13;;;;;;;;;;5117771;28;20205;-65
2021/10/09 11:10:00;;;;;;;15.53;10.97;;;;;;;;;;5117682;28;20292;-65
2021/10/09 11:12:29;;;;;;;17.30;10.20;;;;;;;;;;5117543;28;20247;-65
2021/10/09 11:15:06;;;;;;;20.87;10.80;;;;;;;;;;5117567;28;20220;-65
2021/10/09 11:17:35;;;;;;;16.90;10.60;;;;;;;;;;5117556;28;20576;-65
2021/10/09 11:20:04;;;;;;;15.40;10.50;;;;;;;;;;5117651;28;20211;-65
2021/10/09 11:22:39;;;;;;;12.17;8.70;;;;;;;;;;5117104;28;20230;-65
2021/10/09 11:25:07;;;;;;;15.63;9.60;;;;;;;;;;5117334;28;20223;-65
2021/10/09 11:27:36;;;;;;;14.37;9.90;;;;;;;;;;5117810;28;20215;-65
2021/10/09 11:30:07;;;;;;;18.20;10.83;;;;;;;;;;5117301;28;20693;-65
2021/10/09 11:32:36;;;;;;;16.93;9.93;;;;;;;;;;5117464;28;20316;-65
2021/10/09 11:35:04;;;;;;;19.03;11.50;;;;;;;;;;5117347;28;20228;-65
2021/10/09 11:37:33;;;;;;;14.43;9.77;;;;;;;;;;5117188;28;20203;-65
2021/10/09 11:40:02;;;;;;;14.83;9.00;;;;;;;;;;5117336;28;20707;-65
2021/10/09 11:42:33;;;;;;;15.70;9.83;;;;;;;;;;5118982;28;20204;-65
2021/10/09 11:45:11;;;;;;;11.87;9.63;;;;;;;;;;5121176;28;20592;-65
2021/10/09 11:53:39;;;;;;;15.03;10.33;;;;;;;;;;5120838;28;20215;-65
2021/10/09 11:56:08;;;;;;;14.60;9.57;;;;;;;;;;5121314;28;20211;-65
2021/10/09 11:58:47;;;;;;;16.27;9.60;;;;;;;;;;5120854;28;20205;-65
2021/10/09 12:01:30;;;;;;;12.77;9.03;;;;;;;;;;5120855;28;20201;-65
2021/10/09 12:04:12;;;;;;;11.73;8.77;;;;;;;;;;5121034;28;20311;-65
2021/10/09 12:06:41;;;;;;;14.87;10.00;;;;;;;;;;5107417;28;20205;-65
2021/10/09 12:09:10;;;;;;;14.77;9.77;;;;;;;;;;5120803;28;20247;-65
2021/10/09 12:11:38;;;;;;;11.53;9.33;;;;;;;;;;5120626;28;20256;-65
2021/10/09 12:14:10;;;;;;;18.53;10.00;;;;;;;;;;5120578;27;20231;-65
2021/10/09 12:16:41;;;;;;;16.57;9.37;;;;;;;;;;5120829;28;20209;-65
2021/10/09 12:19:10;;;;;;;14.13;9.93;;;;;;;;;;5120350;28;20570;-65
2021/10/09 12:21:41;;;;;;;12.80;9.13;;;;;;;;;;5120752;28;20250;-65
2021/10/09 12:24:13;;;;;;;14.77;10.77;;;;;;;;;;5120732;28;20312;-65
2021/10/09 12:26:41;;;;;;;16.67;10.20;;;;;;;;;;5120663;28;20264;-65
2021/10/09 12:29:10;;;;;;;14.17;9.90;;;;;;;;;;5120101;28;20211;-65
2021/10/09 12:31:43;;;;;;;13.53;9.90;;;;;;;;;;5119953;28;20223;-65
2021/10/09 12:34:27;;;;;;;14.60;9.70;;;;;;;;;;5120135;28;20221;-65
2021/10/09 12:37:12;;;;;;;14.10;9.70;;;;;;;;;;5119819;28;20204;-65
2021/10/09 12:39:40;;;;;;;12.30;9.27;;;;;;;;;;5116608;28;20708;-65
2021/10/09 12:42:08;;;;;;;14.10;10.33;;;;;;;;;;5115337;28;20559;-65
2021/10/09 12:44:36;;;;;;;15.53;10.10;;;;;;;;;;5119834;28;20284;-65
2021/10/09 12:47:06;;;;;;;16.57;10.13;;;;;;;;;;5119507;28;20571;-65
2021/10/09 12:49:34;;;;;;;13.17;9.90;;;;;;;;;;5119970;28;20205;-65
2021/10/09 12:52:02;;;;;;;13.43;9.47;;;;;;;;;;5119332;28;20374;-65
2021/10/09 12:54:31;;;;;;;15.10;10.50;;;;;;;;;;5119660;28;20243;-65
2021/10/09 12:56:59;;;;;;;15.90;10.57;;;;;;;;;;5119803;28;20549;-65
2021/10/09 12:59:28;;;;;;;13.83;10.07;;;;;;;;;;5119924;28;20281;-65
2021/10/09 13:01:56;;;;;;;16.27;9.87;;;;;;;;;;5119043;28;20275;-65
2021/10/09 13:04:25;;;;;;;15.23;10.33;;;;;;;;;;5119191;28;20633;-65
2021/10/09 13:06:53;;;;;;;13.67;9.57;;;;;;;;;;5119081;28;20219;-65
2021/10/09 13:09:21;;;;;;;13.90;9.67;;;;;;;;;;5119757;28;20223;-65
2021/10/09 13:11:53;;;;;;;13.97;9.00;;;;;;;;;;5119735;27;20233;-65
2021/10/09 13:14:21;;;;;;;11.50;8.90;;;;;;;;;;5119861;28;20220;-65
2021/10/09 13:16:49;;;;;;;13.57;9.30;;;;;;;;;;5119473;28;20292;-65
2021/10/09 13:19:17;;;;;;;13.97;9.83;;;;;;;;;;5119338;28;20687;-65
2021/10/09 13:21:46;;;;;;;13.23;9.57;;;;;;;;;;5119396;28;20197;-65
2021/10/09 13:24:14;;;;;;;10.77;9.47;;;;;;;;;;5119762;28;20213;-65
2021/10/09 13:26:42;;;;;;;12.97;9.87;;;;;;;;;;5119483;28;20227;-65
2021/10/09 13:29:10;;;;;;;16.37;9.83;;;;;;;;;;5119328;28;20205;-65
2021/10/09 13:31:38;;;;;;;13.93;8.60;;;;;;;;;;5119002;28;20287;-65
2021/10/09 13:34:06;;;;;;;13.73;9.67;;;;;;;;;;5119161;28;20260;-65
2021/10/09 13:36:38;;;;;;;11.73;8.87;;;;;;;;;;5119782;27;20295;-65
2021/10/09 13:39:08;;;;;;;14.80;9.33;;;;;;;;;;5119475;28;20236;-65
2021/10/09 13:41:36;;;;;;;12.07;9.07;;;;;;;;;;5119495;28;20283;-65
2021/10/09 13:44:04;;;;;;;11.37;9.57;;;;;;;;;;5119518;28;20303;-65
2021/10/09 13:46:32;;;;;;;12.20;9.53;;;;;;;;;;5119471;28;20207;-65
2021/10/09 13:49:00;;;;;;;12.90;9.60;;;;;;;;;;5119127;28;20219;-65
2021/10/09 13:51:28;;;;;;;13.83;8.87;;;;;;;;;;5119536;28;20200;-65
2021/10/09 13:53:56;;;;;;;15.80;10.03;;;;;;;;;;5123562;27;20231;-69
2021/10/09 13:56:26;;;;;;;15.23;9.30;;;;;;;;;;5127619;27;20196;-68
2021/10/09 13:58:58;;;;;;;11.67;8.10;;;;;;;;;;5122740;27;20212;-67
2021/10/09 14:01:41;;;;;;;12.83;8.93;;;;;;;;;;5127495;27;20200;-68
2021/10/09 14:04:11;;;;;;;12.77;9.07;;;;;;;;;;5128894;27;20224;-69
2021/10/09 14:06:42;;;;;;;14.80;9.20;;;;;;;;;;5129020;27;20208;-70
2021/10/09 14:09:10;;;;;;;12.17;8.47;;;;;;;;;;5129432;27;20562;-69
2021/10/09 14:11:40;;;;;;;11.87;8.50;;;;;;;;;;5129727;27;20260;-69
2021/10/09 14:14:08;;;;;;;13.10;8.90;;;;;;;;;;5126333;27;20270;-71
2021/10/09 14:16:36;;;;;;;13.43;9.63;;;;;;;;;;5129743;27;20196;-68
2021/10/09 14:19:04;;;;;;;14.07;9.47;;;;;;;;;;5130084;27;20200;-69
2021/10/09 14:21:32;;;;;;;14.47;9.50;;;;;;;;;;5126797;27;20201;-69
2021/10/09 14:24:00;;;;;;;14.23;8.83;;;;;;;;;;5129960;27;20216;-69
2021/10/09 14:26:28;;;;;;;11.67;8.57;;;;;;;;;;5129377;27;20197;-69
2021/10/09 14:28:57;;;;;;;17.27;9.77;;;;;;;;;;5128643;27;20196;-70
2021/10/09 14:31:26;;;;;;;14.33;9.00;;;;;;;;;;5130109;27;20226;-71
2021/10/09 14:33:54;;;;;;;12.70;8.40;;;;;;;;;;5126168;27;20288;-72
2021/10/09 14:36:22;;;;;;;11.97;9.07;;;;;;;;;;5128577;27;20206;-67
2021/10/09 14:38:50;;;;;;;13.47;9.07;;;;;;;;;;5129725;27;20314;-68
2021/10/09 14:41:18;;;;;;;14.37;9.40;;;;;;;;;;5129732;27;20610;-67
2021/10/09 14:43:46;;;;;;;14.60;10.27;;;;;;;;;;5127755;27;20741;-67
2021/10/09 14:46:38;;;;;;;11.73;8.57;;;;;;;;;;5127693;27;20205;-67
2021/10/09 14:49:11;;;;;;;15.73;9.40;;;;;;;;;;5126812;28;20188;-64
2021/10/09 14:51:43;;;;;;;13.30;9.93;;;;;;;;;;5129813;28;20200;-64
2021/10/09 15:16:49;;;;;;;15.23;10.33;;;;;;;;;;5131530;27;20643;-64
2021/10/09 15:19:18;;;;;;;13.70;9.47;;;;;;;;;;5132543;27;20250;-64
2021/10/09 15:21:46;;;;;;;15.07;10.20;;;;;;;;;;5133550;27;20205;-65
2021/10/09 15:24:14;;;;;;;14.10;10.20;;;;;;;;;;5131860;27;20220;-64
2021/10/09 15:26:43;;;;;;;15.70;10.33;;;;;;;;;;5130445;27;20270;-65
2021/10/09 15:29:11;;;;;;;14.70;9.70;;;;;;;;;;5124270;28;20209;-65
2021/10/09 15:31:40;;;;;;;15.73;10.53;;;;;;;;;;5123765;28;20213;-64
2021/10/09 15:34:08;;;;;;;14.67;9.90;;;;;;;;;;5127819;27;20224;-66
2021/10/09 15:36:38;;;;;;;16.80;10.37;;;;;;;;;;5125058;27;20208;-64
2021/10/09 15:39:06;;;;;;;14.57;10.87;;;;;;;;;;5121636;28;20319;-65
2021/10/09 15:41:34;;;;;;;16.97;10.37;;;;;;;;;;5123131;28;20292;-65
2021/10/09 15:44:02;;;;;;;16.33;10.17;;;;;;;;;;5123590;28;20225;-65
2021/10/09 15:46:30;;;;;;;15.53;10.87;;;;;;;;;;5123514;28;20209;-65
2021/10/09 15:48:58;;;;;;;16.50;11.20;;;;;;;;;;5123308;28;20264;-64
2021/10/09 15:51:26;;;;;;;15.77;10.73;;;;;;;;;;5122707;28;20207;-64
2021/10/09 15:53:56;;;;;;;15.93;11.30;;;;;;;;;;5112656;28;20228;-64
2021/10/09 15:56:24;;;;;;;17.63;10.90;;;;;;;;;;5123396;28;20204;-64
2021/10/09 15:58:54;;;;;;;16.20;11.13;;;;;;;;;;5123397;27;20209;-64
2021/10/09 16:01:26;;;;;;;14.23;10.13;;;;;;;;;;5122257;28;20237;-64
2021/10/09 16:03:55;;;;;;;14.97;10.93;;;;;;;;;;5121934;28;20287;-64
2021/10/09 16:06:23;;;;;;;16.97;11.53;;;;;;;;;;5122068;28;20200;-64
2021/10/09 16:08:51;;;;;;;15.13;10.90;;;;;;;;;;5121180;28;20287;-64
2021/10/09 16:11:31;;;;;;;16.80;11.30;;;;;;;;;;5122635;27;20204;-64
2021/10/09 16:14:06;;;;;;;17.30;11.90;;;;;;;;;;5121419;28;20229;-64
2021/10/09 16:16:34;;;;;;;15.90;11.10;;;;;;;;;;5121790;28;20231;-64
2021/10/09 16:19:02;;;;;;;16.67;11.47;;;;;;;;;;5121752;28;20292;-64
2021/10/09 16:21:30;;;;;;;15.70;10.47;;;;;;;;;;5120844;28;20655;-64
2021/10/09 16:23:58;;;;;;;14.53;10.90;;;;;;;;;;5120530;28;20580;-64
2021/10/09 16:26:26;;;;;;;17.17;10.67;;;;;;;;;;5121146;28;20565;-64
2021/10/09 16:28:56;;;;;;;16.23;11.20;;;;;;;;;;5120130;28;20232;-63
2021/10/09 16:31:24;;;;;;;17.73;11.10;;;;;;;;;;5121151;28;20215;-62
2021/10/09 16:33:53;;;;;;;15.43;10.97;;;;;;;;;;5120608;28;20232;-63
2021/10/09 16:36:21;;;;;;;16.07;10.90;;;;;;;;;;5121369;28;20215;-63
2021/10/09 16:38:49;;;;;;;16.40;11.73;;;;;;;;;;5120241;28;20311;-63
2021/10/09 16:41:17;;;;;;;16.70;10.80;;;;;;;;;;5120581;28;20292;-63
2021/10/09 16:43:45;;;;;;;15.27;12.13;;;;;;;;;;5120511;28;20193;-62
2021/10/09 16:46:15;;;;;;;15.63;10.83;;;;;;;;;;5121122;28;20209;-63
2021/10/09 16:48:43;;;;;;;20.23;11.87;;;;;;;;;;5120902;28;20208;-63